createdAt,value
2018-01-26T00:00:50.414Z,1016.57
2018-01-26T00:01:52.282Z,1016.58
2018-01-26T00:03:06.406Z,1016.51
2018-01-26T00:04:08.282Z,1016.56
2018-01-26T00:05:10.160Z,1016.54
2018-01-26T00:06:12.034Z,1016.58
2018-01-26T00:07:13.825Z,1016.57
2018-01-26T00:08:15.632Z,1016.62
2018-01-26T00:09:17.491Z,1016.67
2018-01-26T00:10:19.362Z,1016.68
2018-01-26T00:11:21.213Z,1016.61
2018-01-26T00:12:35.335Z,1016.64
2018-01-26T00:13:37.188Z,1016.62
2018-01-26T00:14:39.044Z,1016.59
2018-01-26T00:15:40.905Z,1016.59
2018-01-26T00:16:42.712Z,1016.62
2018-01-26T00:17:44.502Z,1016.64
2018-01-26T00:18:46.358Z,1016.66
2018-01-26T00:19:48.217Z,1016.58
2018-01-26T00:20:50.081Z,1016.58
2018-01-26T00:22:04.208Z,1016.72
2018-01-26T00:23:06.082Z,1016.67
2018-01-26T00:24:07.962Z,1016.70
2018-01-26T00:25:09.828Z,1016.71
2018-01-26T00:26:11.623Z,1016.71
2018-01-26T00:27:13.413Z,1016.68
2018-01-26T00:28:15.281Z,1016.75
2018-01-26T00:29:17.133Z,1016.82
2018-01-26T00:30:18.994Z,1016.77
2018-01-26T00:31:33.106Z,1016.75
2018-01-26T00:32:34.960Z,1016.70
2018-01-26T00:33:36.819Z,1016.68
2018-01-26T00:34:38.684Z,1016.69
2018-01-26T00:35:40.463Z,1016.70
2018-01-26T00:36:42.250Z,1016.65
2018-01-26T00:37:44.108Z,1016.66
2018-01-26T00:38:45.985Z,1016.69
2018-01-26T00:39:47.856Z,1016.70
2018-01-26T00:41:01.979Z,1016.68
2018-01-26T00:42:03.850Z,1016.75
2018-01-26T00:43:05.703Z,1016.76
2018-01-26T00:44:07.552Z,1016.68
2018-01-26T00:45:09.337Z,1016.74
2018-01-26T00:46:11.126Z,1016.71
2018-01-26T00:47:12.987Z,1016.75
2018-01-26T00:48:14.859Z,1016.67
2018-01-26T00:49:16.709Z,1016.73
2018-01-26T00:50:30.877Z,1016.76
2018-01-26T00:51:32.751Z,1016.73
2018-01-26T00:52:34.629Z,1016.77
2018-01-26T00:53:36.499Z,1016.78
2018-01-26T00:54:38.293Z,1016.79
2018-01-26T00:55:40.086Z,1016.81
2018-01-26T00:56:41.956Z,1016.72
2018-01-26T00:57:43.815Z,1016.85
2018-01-26T00:58:45.683Z,1016.90
2018-01-26T00:59:59.799Z,1016.89
2018-01-26T01:01:01.655Z,1016.82
2018-01-26T01:02:03.521Z,1016.88
2018-01-26T01:03:05.385Z,1016.82
2018-01-26T01:04:07.177Z,1016.79
2018-01-26T01:05:08.988Z,1016.84
2018-01-26T01:06:10.864Z,1016.83
2018-01-26T01:07:12.781Z,1016.81
2018-01-26T01:08:14.593Z,1016.78
2018-01-26T01:09:28.727Z,1016.80
2018-01-26T01:10:30.581Z,1016.82
2018-01-26T01:11:32.437Z,1016.83
2018-01-26T01:12:34.291Z,1016.88
2018-01-26T01:13:36.088Z,1016.86
2018-01-26T01:14:37.887Z,1016.78
2018-01-26T01:15:39.747Z,1016.85
2018-01-26T01:16:41.617Z,1016.85
2018-01-26T01:17:43.471Z,1016.86
2018-01-26T01:18:57.643Z,1016.82
2018-01-26T01:19:59.519Z,1016.84
2018-01-26T01:21:01.372Z,1016.82
2018-01-26T01:22:03.223Z,1016.72
2018-01-26T01:23:05.019Z,1016.78
2018-01-26T01:24:06.828Z,1016.87
2018-01-26T01:25:08.706Z,1016.83
2018-01-26T01:26:10.573Z,1016.79
2018-01-26T01:27:12.429Z,1016.75
2018-01-26T01:28:26.528Z,1016.86
2018-01-26T01:29:28.317Z,1016.84
2018-01-26T01:30:30.180Z,1016.78
2018-01-26T01:31:32.052Z,1016.78
2018-01-26T01:32:33.928Z,1016.73
2018-01-26T01:33:35.742Z,1016.78
2018-01-26T01:34:37.529Z,1016.78
2018-01-26T01:35:39.387Z,1016.66
2018-01-26T01:36:41.255Z,1016.70
2018-01-26T01:37:55.440Z,1016.73
2018-01-26T01:38:57.302Z,1016.70
2018-01-26T01:39:59.174Z,1016.68
2018-01-26T01:41:01.027Z,1016.74
2018-01-26T01:42:02.821Z,1016.66
2018-01-26T01:43:04.631Z,1016.75
2018-01-26T01:44:06.505Z,1016.74
2018-01-26T01:45:08.380Z,1016.73
2018-01-26T01:46:10.254Z,1016.70
2018-01-26T01:47:24.389Z,1016.68
2018-01-26T01:48:26.246Z,1016.71
2018-01-26T01:49:28.118Z,1016.67
2018-01-26T01:50:29.970Z,1016.73
2018-01-26T01:51:31.755Z,1016.78
2018-01-26T01:52:33.549Z,1016.67
2018-01-26T01:53:35.423Z,1016.75
2018-01-26T01:54:37.302Z,1016.71
2018-01-26T01:55:39.173Z,1016.77
2018-01-26T01:56:53.311Z,1016.74
2018-01-26T01:57:55.163Z,1016.79
2018-01-26T01:58:57.022Z,1016.71
2018-01-26T01:59:58.889Z,1016.76
2018-01-26T02:01:00.679Z,1016.71
2018-01-26T02:02:02.490Z,1016.73
2018-01-26T02:03:04.335Z,1016.69
2018-01-26T02:04:06.194Z,1016.71
2018-01-26T02:05:08.069Z,1016.75
2018-01-26T02:06:22.186Z,1016.72
2018-01-26T02:07:24.042Z,1016.69
2018-01-26T02:08:25.902Z,1016.79
2018-01-26T02:09:27.775Z,1016.73
2018-01-26T02:10:29.581Z,1016.75
2018-01-26T02:11:31.372Z,1016.77
2018-01-26T02:12:33.245Z,1016.73
2018-01-26T02:13:35.120Z,1016.74
2018-01-26T02:14:36.966Z,1016.71
2018-01-26T02:15:51.080Z,1016.67
2018-01-26T02:16:52.936Z,1016.64
2018-01-26T02:17:54.813Z,1016.62
2018-01-26T02:18:56.684Z,1016.51
2018-01-26T02:19:58.490Z,1016.55
2018-01-26T02:21:00.286Z,1016.53
2018-01-26T02:22:02.156Z,1016.59
2018-01-26T02:23:04.007Z,1016.65
2018-01-26T02:24:05.863Z,1016.70
2018-01-26T02:25:20.003Z,1016.69
2018-01-26T02:26:21.874Z,1016.69
2018-01-26T02:27:23.725Z,1016.68
2018-01-26T02:28:25.578Z,1016.71
2018-01-26T02:29:27.388Z,1016.61
2018-01-26T02:30:29.201Z,1016.65
2018-01-26T02:31:31.073Z,1016.56
2018-01-26T02:32:32.951Z,1016.57
2018-01-26T02:33:34.795Z,1016.59
2018-01-26T02:34:48.920Z,1016.58
2018-01-26T02:35:50.770Z,1016.55
2018-01-26T02:36:52.629Z,1016.52
2018-01-26T02:37:54.486Z,1016.44
2018-01-26T02:38:56.301Z,1016.51
2018-01-26T02:39:58.088Z,1016.39
2018-01-26T02:40:59.944Z,1016.56
2018-01-26T02:42:01.803Z,1016.44
2018-01-26T02:43:03.654Z,1016.47
2018-01-26T02:44:17.804Z,1016.46
2018-01-26T02:45:19.663Z,1016.40
2018-01-26T02:46:21.520Z,1016.37
2018-01-26T02:47:23.384Z,1016.40
2018-01-26T02:48:25.173Z,1016.40
2018-01-26T02:49:26.955Z,1016.29
2018-01-26T02:50:28.866Z,1016.29
2018-01-26T02:51:30.680Z,1016.35
2018-01-26T02:52:32.541Z,1016.35
2018-01-26T02:53:46.683Z,1016.29
2018-01-26T02:54:48.543Z,1016.30
2018-01-26T02:55:50.415Z,1016.27
2018-01-26T02:56:52.269Z,1016.37
2018-01-26T02:57:54.065Z,1016.29
2018-01-26T02:58:55.856Z,1016.20
2018-01-26T02:59:57.709Z,1016.16
2018-01-26T03:00:59.565Z,1016.20
2018-01-26T03:02:01.381Z,1016.18
2018-01-26T03:03:15.518Z,1016.19
2018-01-26T03:04:17.379Z,1016.15
2018-01-26T03:05:19.252Z,1016.12
2018-01-26T03:06:21.109Z,1016.12
2018-01-26T03:07:22.921Z,1016.17
2018-01-26T03:08:24.710Z,1016.34
2018-01-26T03:09:26.565Z,1016.13
2018-01-26T03:10:28.422Z,1016.10
2018-01-26T03:11:30.281Z,1016.28
2018-01-26T03:12:44.479Z,1016.25
2018-01-26T03:13:46.352Z,1016.28
2018-01-26T03:14:48.234Z,1016.31
2018-01-26T03:15:50.090Z,1016.33
2018-01-26T03:16:51.897Z,1016.39
2018-01-26T03:17:53.691Z,1016.38
2018-01-26T03:18:55.567Z,1016.31
2018-01-26T03:19:57.441Z,1016.35
2018-01-26T03:20:59.299Z,1016.32
2018-01-26T03:22:13.446Z,1016.22
2018-01-26T03:23:15.315Z,1016.21
2018-01-26T03:24:17.177Z,1016.31
2018-01-26T03:25:19.055Z,1016.33
2018-01-26T03:26:20.868Z,1016.42
2018-01-26T03:27:22.658Z,1016.40
2018-01-26T03:28:24.516Z,1016.48
2018-01-26T03:29:26.367Z,1016.48
2018-01-26T03:30:28.226Z,1016.48
2018-01-26T03:31:42.368Z,1016.61
2018-01-26T03:32:44.242Z,1016.50
2018-01-26T03:33:46.117Z,1016.42
2018-01-26T03:34:47.976Z,1016.48
2018-01-26T03:35:49.786Z,1016.51
2018-01-26T03:36:51.578Z,1016.50
2018-01-26T03:37:53.431Z,1016.50
2018-01-26T03:38:55.284Z,1016.56
2018-01-26T03:39:57.141Z,1016.53
2018-01-26T03:41:11.258Z,1016.51
2018-01-26T03:42:13.120Z,1016.58
2018-01-26T03:43:14.996Z,1016.52
2018-01-26T03:44:16.875Z,1016.48
2018-01-26T03:45:18.709Z,1016.56
2018-01-26T03:46:20.515Z,1016.54
2018-01-26T03:47:22.393Z,1016.44
2018-01-26T03:48:24.252Z,1016.48
2018-01-26T03:49:26.124Z,1016.51
2018-01-26T03:50:40.268Z,1016.51
2018-01-26T03:51:42.143Z,1016.56
2018-01-26T03:52:44.024Z,1016.46
2018-01-26T03:53:45.900Z,1016.45
2018-01-26T03:54:47.708Z,1016.33
2018-01-26T03:55:49.504Z,1016.41
2018-01-26T03:56:51.359Z,1016.51
2018-01-26T03:57:53.237Z,1016.52
2018-01-26T03:58:55.109Z,1016.47
2018-01-26T04:00:09.229Z,1016.35
2018-01-26T04:01:11.092Z,1016.53
2018-01-26T04:02:12.971Z,1016.44
2018-01-26T04:03:14.850Z,1016.52
2018-01-26T04:04:16.665Z,1016.49
2018-01-26T04:05:18.450Z,1016.54
2018-01-26T04:06:20.307Z,1016.57
2018-01-26T04:07:22.143Z,1016.55
2018-01-26T04:08:23.936Z,1016.64
2018-01-26T04:09:38.075Z,1016.61
2018-01-26T04:10:39.936Z,1016.62
2018-01-26T04:11:41.799Z,1016.49
2018-01-26T04:12:43.649Z,1016.65
2018-01-26T04:13:45.442Z,1016.73
2018-01-26T04:14:47.255Z,1016.56
2018-01-26T04:15:49.130Z,1016.58
2018-01-26T04:16:50.990Z,1016.55
2018-01-26T04:17:52.847Z,1016.45
2018-01-26T04:19:07.022Z,1016.49
2018-01-26T04:20:08.901Z,1016.49
2018-01-26T04:21:10.777Z,1016.46
2018-01-26T04:22:12.628Z,1016.40
2018-01-26T04:23:14.424Z,1016.41
2018-01-26T04:24:16.231Z,1016.39
2018-01-26T04:25:18.088Z,1016.40
2018-01-26T04:26:19.943Z,1016.42
2018-01-26T04:27:21.849Z,1016.44
2018-01-26T04:28:35.988Z,1016.43
2018-01-26T04:29:37.859Z,1016.45
2018-01-26T04:30:39.702Z,1016.50
2018-01-26T04:31:41.597Z,1016.55
2018-01-26T04:32:43.407Z,1016.59
2018-01-26T04:33:45.200Z,1016.58
2018-01-26T04:34:47.079Z,1016.63
2018-01-26T04:35:48.939Z,1016.57
2018-01-26T04:36:50.809Z,1016.67
2018-01-26T04:38:04.936Z,1016.60
2018-01-26T04:39:06.813Z,1016.58
2018-01-26T04:40:08.697Z,1016.47
2018-01-26T04:41:10.567Z,1016.55
2018-01-26T04:42:12.362Z,1016.53
2018-01-26T04:43:14.174Z,1016.56
2018-01-26T04:44:16.031Z,1016.56
2018-01-26T04:45:17.895Z,1016.56
2018-01-26T04:46:19.769Z,1016.49
2018-01-26T04:47:33.934Z,1016.46
2018-01-26T04:48:35.794Z,1016.50
2018-01-26T04:49:37.673Z,1016.47
2018-01-26T04:50:39.523Z,1016.46
2018-01-26T04:51:41.313Z,1016.44
2018-01-26T04:52:43.109Z,1016.39
2018-01-26T04:53:44.958Z,1016.24
2018-01-26T04:54:46.807Z,1016.32
2018-01-26T04:55:48.667Z,1016.26
2018-01-26T04:57:02.854Z,1016.25
2018-01-26T04:58:04.706Z,1016.29
2018-01-26T04:59:06.568Z,1016.26
2018-01-26T05:00:08.444Z,1016.34
2018-01-26T05:01:10.235Z,1016.35
2018-01-26T05:02:12.026Z,1016.30
2018-01-26T05:03:13.882Z,1016.35
2018-01-26T05:04:15.756Z,1016.30
2018-01-26T05:05:17.635Z,1016.36
2018-01-26T05:06:31.779Z,1016.41
2018-01-26T05:07:33.653Z,1016.32
2018-01-26T05:08:35.528Z,1016.35
2018-01-26T05:09:37.382Z,1016.35
2018-01-26T05:10:39.172Z,1016.32
2018-01-26T05:11:40.962Z,1016.34
2018-01-26T05:12:42.822Z,1016.31
2018-01-26T05:13:44.696Z,1016.39
2018-01-26T05:14:46.551Z,1016.42
2018-01-26T05:16:00.723Z,1016.43
2018-01-26T05:17:02.593Z,1016.44
2018-01-26T05:18:04.448Z,1016.45
2018-01-26T05:19:06.308Z,1016.43
2018-01-26T05:20:08.122Z,1016.47
2018-01-26T05:21:09.933Z,1016.45
2018-01-26T05:22:11.787Z,1016.51
2018-01-26T05:23:13.659Z,1016.53
2018-01-26T05:24:15.520Z,1016.52
2018-01-26T05:25:29.691Z,1016.47
2018-01-26T05:26:31.545Z,1016.41
2018-01-26T05:27:33.408Z,1016.47
2018-01-26T05:28:35.257Z,1016.50
2018-01-26T05:29:37.057Z,1016.52
2018-01-26T05:30:38.866Z,1016.48
2018-01-26T05:31:40.745Z,1016.48
2018-01-26T05:32:42.595Z,1016.45
2018-01-26T05:33:44.457Z,1016.57
2018-01-26T05:34:58.578Z,1016.66
2018-01-26T05:36:00.438Z,1016.56
2018-01-26T05:37:02.296Z,1016.51
2018-01-26T05:38:04.168Z,1016.52
2018-01-26T05:39:05.964Z,1016.54
2018-01-26T05:40:07.778Z,1016.50
2018-01-26T05:41:09.646Z,1016.54
2018-01-26T05:42:11.501Z,1016.51
2018-01-26T05:43:13.357Z,1016.55
2018-01-26T05:44:27.474Z,1016.59
2018-01-26T05:45:29.344Z,1016.54
2018-01-26T05:46:31.217Z,1016.57
2018-01-26T05:47:33.091Z,1016.66
2018-01-26T05:48:34.881Z,1016.68
2018-01-26T05:49:36.674Z,1016.66
2018-01-26T05:50:38.532Z,1016.64
2018-01-26T05:51:40.408Z,1016.66
2018-01-26T05:52:42.251Z,1016.70
2018-01-26T05:53:56.433Z,1016.64
2018-01-26T05:54:58.251Z,1016.72
2018-01-26T05:56:00.152Z,1016.65
2018-01-26T05:57:01.970Z,1016.69
2018-01-26T05:58:03.767Z,1016.66
2018-01-26T05:59:05.579Z,1016.62
2018-01-26T06:00:07.435Z,1016.63
2018-01-26T06:01:09.332Z,1016.62
2018-01-26T06:02:11.145Z,1016.62
2018-01-26T06:03:25.282Z,1016.62
2018-01-26T06:04:27.151Z,1016.64
2018-01-26T06:05:29.020Z,1016.65
2018-01-26T06:06:30.901Z,1016.64
2018-01-26T06:07:32.713Z,1016.62
2018-01-26T06:08:34.504Z,1016.61
2018-01-26T06:09:36.353Z,1016.62
2018-01-26T06:10:38.211Z,1016.67
2018-01-26T06:11:40.061Z,1016.65
2018-01-26T06:12:54.189Z,1016.58
2018-01-26T06:13:55.999Z,1016.65
2018-01-26T06:14:57.790Z,1016.65
2018-01-26T06:15:59.581Z,1016.66
2018-01-26T06:17:01.460Z,1016.68
2018-01-26T06:18:03.318Z,1016.67
2018-01-26T06:19:05.165Z,1016.62
2018-01-26T06:20:06.958Z,1016.66
2018-01-26T06:21:08.749Z,1016.65
2018-01-26T06:22:22.942Z,1016.75
2018-01-26T06:23:24.816Z,1016.71
2018-01-26T06:24:26.675Z,1016.74
2018-01-26T06:25:28.553Z,1016.77
2018-01-26T06:26:30.360Z,1016.77
2018-01-26T06:27:32.155Z,1016.72
2018-01-26T06:28:34.012Z,1016.76
2018-01-26T06:29:35.898Z,1016.76
2018-01-26T06:30:37.752Z,1016.73
2018-01-26T06:31:51.946Z,1016.78
2018-01-26T06:32:53.802Z,1016.77
2018-01-26T06:33:55.659Z,1016.78
2018-01-26T06:34:57.510Z,1016.82
2018-01-26T06:35:59.301Z,1016.80
2018-01-26T06:37:01.100Z,1016.81
2018-01-26T06:38:02.977Z,1016.89
2018-01-26T06:39:04.835Z,1016.88
2018-01-26T06:40:06.711Z,1016.88
2018-01-26T06:41:20.832Z,1016.85
2018-01-26T06:42:22.695Z,1016.78
2018-01-26T06:43:24.555Z,1016.82
2018-01-26T06:44:26.424Z,1016.79
2018-01-26T06:45:28.219Z,1016.80
2018-01-26T06:46:30.011Z,1016.86
2018-01-26T06:47:31.892Z,1016.89
2018-01-26T06:48:33.772Z,1016.96
2018-01-26T06:49:35.628Z,1016.94
2018-01-26T06:50:49.757Z,1017.02
2018-01-26T06:51:51.638Z,1017.02
2018-01-26T06:52:53.495Z,1016.97
2018-01-26T06:53:55.354Z,1017.00
2018-01-26T06:54:57.154Z,1016.99
2018-01-26T06:55:58.965Z,1016.95
2018-01-26T06:57:00.832Z,1017.00
2018-01-26T06:58:02.707Z,1016.97
2018-01-26T06:59:04.566Z,1016.94
2018-01-26T07:00:18.737Z,1016.87
2018-01-26T07:01:20.601Z,1016.90
2018-01-26T07:02:22.483Z,1016.85
2018-01-26T07:03:24.357Z,1016.82
2018-01-26T07:04:26.151Z,1016.90
2018-01-26T07:05:27.945Z,1016.85
2018-01-26T07:06:29.804Z,1016.82
2018-01-26T07:07:31.656Z,1016.85
2018-01-26T07:08:33.511Z,1016.90
2018-01-26T07:09:47.647Z,1016.93
2018-01-26T07:10:49.527Z,1016.92
2018-01-26T07:11:51.402Z,1016.93
2018-01-26T07:12:53.270Z,1016.94
2018-01-26T07:13:55.083Z,1016.94
2018-01-26T07:14:56.879Z,1016.91
2018-01-26T07:15:58.757Z,1016.94
2018-01-26T07:17:00.632Z,1016.87
2018-01-26T07:18:02.497Z,1016.94
2018-01-26T07:19:16.698Z,1016.91
2018-01-26T07:20:18.564Z,1016.91
2018-01-26T07:21:20.424Z,1016.95
2018-01-26T07:22:22.278Z,1017.00
2018-01-26T07:23:24.075Z,1017.07
2018-01-26T07:24:25.894Z,1017.02
2018-01-26T07:25:27.770Z,1017.02
2018-01-26T07:26:29.646Z,1017.07
2018-01-26T07:27:31.527Z,1016.93
2018-01-26T07:31:57.066Z,1017.05
2018-01-26T07:32:58.926Z,1017.05
2018-01-26T07:34:00.784Z,1017.08
2018-01-26T07:35:02.585Z,1017.14
2018-01-26T07:36:04.398Z,1017.14
2018-01-26T07:37:06.253Z,1017.11
2018-01-26T07:38:08.137Z,1017.09
2018-01-26T07:39:10.011Z,1017.12
2018-01-26T07:40:24.136Z,1017.17
2018-01-26T07:41:25.995Z,1017.15
2018-01-26T07:42:27.855Z,1017.13
2018-01-26T07:43:29.736Z,1017.23
2018-01-26T07:44:31.541Z,1017.21
2018-01-26T07:45:33.343Z,1017.11
2018-01-26T07:46:35.214Z,1017.18
2018-01-26T07:47:37.071Z,1017.17
2018-01-26T07:48:38.938Z,1017.25
2018-01-26T07:49:53.078Z,1017.27
2018-01-26T07:50:54.932Z,1017.28
2018-01-26T07:51:56.818Z,1017.33
2018-01-26T07:52:58.676Z,1017.35
2018-01-26T07:54:00.475Z,1017.32
2018-01-26T07:55:02.283Z,1017.42
2018-01-26T07:56:04.148Z,1017.34
2018-01-26T07:57:06.025Z,1017.37
2018-01-26T07:58:07.891Z,1017.32
2018-01-26T07:59:22.035Z,1017.40
2018-01-26T08:00:23.920Z,1017.35
2018-01-26T08:01:25.794Z,1017.40
2018-01-26T08:02:27.668Z,1017.27
2018-01-26T08:03:29.479Z,1017.30
2018-01-26T08:04:31.274Z,1017.35
2018-01-26T08:05:33.136Z,1017.36
2018-01-26T08:06:35.015Z,1017.34
2018-01-26T08:07:36.895Z,1017.33
2018-01-26T08:08:51.042Z,1017.32
2018-01-26T08:09:52.896Z,1017.32
2018-01-26T08:10:54.760Z,1017.30
2018-01-26T08:11:56.634Z,1017.32
2018-01-26T08:12:58.433Z,1017.26
2018-01-26T08:14:00.251Z,1017.28
2018-01-26T08:15:02.125Z,1017.28
2018-01-26T08:16:03.981Z,1017.20
2018-01-26T08:17:05.843Z,1017.31
2018-01-26T08:18:19.966Z,1017.30
2018-01-26T08:19:21.824Z,1017.26
2018-01-26T08:20:23.686Z,1017.29
2018-01-26T08:21:25.544Z,1017.34
2018-01-26T08:22:27.337Z,1017.28
2018-01-26T08:23:29.150Z,1017.29
2018-01-26T08:24:31.017Z,1017.33
2018-01-26T08:25:32.880Z,1017.36
2018-01-26T08:26:34.738Z,1017.43
2018-01-26T08:27:48.865Z,1017.31
2018-01-26T08:28:50.738Z,1017.38
2018-01-26T08:29:52.604Z,1017.28
2018-01-26T08:30:54.470Z,1017.32
2018-01-26T08:31:56.284Z,1017.42
2018-01-26T08:32:58.096Z,1017.43
2018-01-26T08:33:59.961Z,1017.34
2018-01-26T08:35:01.817Z,1017.38
2018-01-26T08:36:03.671Z,1017.34
2018-01-26T08:37:17.799Z,1017.36
2018-01-26T08:38:19.659Z,1017.44
2018-01-26T08:39:21.520Z,1017.30
2018-01-26T08:40:23.395Z,1017.43
2018-01-26T08:41:25.203Z,1017.48
2018-01-26T08:42:27.012Z,1017.44
2018-01-26T08:43:28.833Z,1017.40
2018-01-26T08:44:30.651Z,1017.44
2018-01-26T08:45:32.468Z,1017.47
2018-01-26T08:46:46.595Z,1017.44
2018-01-26T08:47:48.468Z,1017.39
2018-01-26T08:48:50.345Z,1017.48
2018-01-26T08:49:52.206Z,1017.50
2018-01-26T08:50:54.024Z,1017.49
2018-01-26T08:51:55.807Z,1017.55
2018-01-26T08:52:57.670Z,1017.54
2018-01-26T08:53:59.549Z,1017.56
2018-01-26T08:55:01.408Z,1017.54
2018-01-26T08:56:15.532Z,1017.55
2018-01-26T08:57:17.393Z,1017.58
2018-01-26T08:58:19.271Z,1017.64
2018-01-26T08:59:21.151Z,1017.64
2018-01-26T09:00:22.942Z,1017.58
2018-01-26T09:01:24.736Z,1017.57
2018-01-26T09:02:26.596Z,1017.63
2018-01-26T09:03:28.467Z,1017.58
2018-01-26T09:04:30.328Z,1017.62
2018-01-26T09:05:44.475Z,1017.63
2018-01-26T09:06:46.336Z,1017.58
2018-01-26T09:07:48.197Z,1017.59
2018-01-26T09:08:50.073Z,1017.60
2018-01-26T09:09:51.891Z,1017.62
2018-01-26T09:10:53.702Z,1017.64
2018-01-26T09:11:55.575Z,1017.64
2018-01-26T09:12:57.443Z,1017.64
2018-01-26T09:13:59.327Z,1017.64
2018-01-26T09:15:13.453Z,1017.62
2018-01-26T09:16:15.335Z,1017.69
2018-01-26T09:17:17.213Z,1017.62
2018-01-26T09:18:19.070Z,1017.60
2018-01-26T09:19:20.861Z,1017.67
2018-01-26T09:20:22.661Z,1017.68
2018-01-26T09:21:24.541Z,1017.62
2018-01-26T09:22:26.430Z,1017.58
2018-01-26T09:23:28.263Z,1017.68
2018-01-26T09:24:42.413Z,1017.64
2018-01-26T09:25:44.288Z,1017.61
2018-01-26T09:26:46.150Z,1017.62
2018-01-26T09:27:48.013Z,1017.58
2018-01-26T09:28:49.827Z,1017.59
2018-01-26T09:29:51.630Z,1017.66
2018-01-26T09:30:53.492Z,1017.69
2018-01-26T09:31:55.347Z,1017.62
2018-01-26T09:32:57.230Z,1017.73
2018-01-26T09:34:11.416Z,1017.69
2018-01-26T09:35:13.273Z,1017.75
2018-01-26T09:36:15.137Z,1017.73
2018-01-26T09:37:16.998Z,1017.71
2018-01-26T09:38:18.809Z,1017.70
2018-01-26T09:39:20.604Z,1017.73
2018-01-26T09:40:22.465Z,1017.71
2018-01-26T09:41:24.328Z,1017.74
2018-01-26T09:42:26.207Z,1017.73
2018-01-26T09:43:40.361Z,1017.75
2018-01-26T09:44:42.223Z,1017.72
2018-01-26T09:45:44.103Z,1017.77
2018-01-26T09:46:45.969Z,1017.75
2018-01-26T09:47:47.759Z,1017.79
2018-01-26T09:48:49.572Z,1017.80
2018-01-26T09:49:51.434Z,1017.78
2018-01-26T09:50:53.293Z,1017.85
2018-01-26T09:51:55.180Z,1017.80
2018-01-26T09:53:09.377Z,1017.87
2018-01-26T09:54:11.257Z,1017.78
2018-01-26T09:55:13.138Z,1017.88
2018-01-26T09:56:14.993Z,1017.87
2018-01-26T09:57:16.807Z,1017.93
2018-01-26T09:58:18.613Z,1017.87
2018-01-26T09:59:20.488Z,1017.84
2018-01-26T10:00:22.345Z,1017.90
2018-01-26T10:01:24.203Z,1017.85
2018-01-26T10:02:38.327Z,1017.84
2018-01-26T10:03:40.190Z,1017.89
2018-01-26T10:04:42.045Z,1017.89
2018-01-26T10:05:43.910Z,1017.83
2018-01-26T10:06:45.703Z,1017.85
2018-01-26T10:07:47.522Z,1017.90
2018-01-26T10:08:49.400Z,1017.92
2018-01-26T10:09:51.261Z,1017.85
2018-01-26T10:10:53.145Z,1017.97
2018-01-26T10:12:07.323Z,1017.96
2018-01-26T10:13:09.158Z,1018.02
2018-01-26T10:14:11.016Z,1017.97
2018-01-26T10:15:12.881Z,1018.03
2018-01-26T10:16:14.733Z,1018.03
2018-01-26T10:17:16.536Z,1018.08
2018-01-26T10:18:18.354Z,1018.09
2018-01-26T10:19:20.209Z,1018.12
2018-01-26T10:20:22.071Z,1018.09
2018-01-26T10:21:36.258Z,1018.16
2018-01-26T10:22:38.154Z,1018.11
2018-01-26T10:23:40.002Z,1018.10
2018-01-26T10:24:41.884Z,1018.02
2018-01-26T10:25:43.703Z,1018.10
2018-01-26T10:26:45.520Z,1018.09
2018-01-26T10:27:47.410Z,1018.12
2018-01-26T10:28:49.265Z,1018.17
2018-01-26T10:29:51.120Z,1018.17
2018-01-26T10:31:05.247Z,1018.19
2018-01-26T10:32:07.114Z,1018.21
2018-01-26T10:33:08.992Z,1018.24
2018-01-26T10:34:10.870Z,1018.18
2018-01-26T10:35:12.692Z,1018.26
2018-01-26T10:36:14.457Z,1018.19
2018-01-26T10:37:16.316Z,1018.25
2018-01-26T10:38:18.171Z,1018.23
2018-01-26T10:39:20.030Z,1018.29
2018-01-26T10:40:34.155Z,1018.31
2018-01-26T10:41:36.019Z,1018.37
2018-01-26T10:42:37.883Z,1018.39
2018-01-26T10:43:39.750Z,1018.39
2018-01-26T10:44:41.549Z,1018.37
2018-01-26T10:45:43.366Z,1018.37
2018-01-26T10:46:45.248Z,1018.40
2018-01-26T10:47:47.136Z,1018.41
2018-01-26T10:48:48.979Z,1018.40
2018-01-26T10:50:03.103Z,1018.46
2018-01-26T10:51:04.965Z,1018.42
2018-01-26T10:52:06.831Z,1018.45
2018-01-26T10:53:08.687Z,1018.44
2018-01-26T10:54:10.503Z,1018.47
2018-01-26T10:55:12.306Z,1018.51
2018-01-26T10:56:14.166Z,1018.52
2018-01-26T10:57:16.043Z,1018.46
2018-01-26T10:58:17.905Z,1018.54
2018-01-26T10:59:32.084Z,1018.57
2018-01-26T11:00:33.940Z,1018.47
2018-01-26T11:01:35.800Z,1018.46
2018-01-26T11:02:37.661Z,1018.48
2018-01-26T11:03:39.460Z,1018.53
2018-01-26T11:04:41.256Z,1018.59
2018-01-26T11:05:43.114Z,1018.58
2018-01-26T11:06:44.976Z,1018.61
2018-01-26T11:07:46.859Z,1018.57
2018-01-26T11:09:01.013Z,1018.59
2018-01-26T11:10:02.865Z,1018.53
2018-01-26T11:11:04.727Z,1018.60
2018-01-26T11:12:06.605Z,1018.63
2018-01-26T11:13:08.405Z,1018.64
2018-01-26T11:14:10.222Z,1018.70
2018-01-26T11:15:12.081Z,1018.69
2018-01-26T11:16:13.945Z,1018.66
2018-01-26T11:17:15.824Z,1018.68
2018-01-26T11:18:30.000Z,1018.70
2018-01-26T11:19:31.861Z,1018.75
2018-01-26T11:20:33.725Z,1018.54
2018-01-26T11:21:35.638Z,1018.65
2018-01-26T11:22:37.406Z,1018.63
2018-01-26T11:23:39.211Z,1018.57
2018-01-26T11:24:41.092Z,1018.58
2018-01-26T11:25:42.955Z,1018.59
2018-01-26T11:26:44.832Z,1018.56
2018-01-26T11:27:58.954Z,1018.64
2018-01-26T11:29:00.818Z,1018.58
2018-01-26T11:30:02.685Z,1018.53
2018-01-26T11:31:04.545Z,1018.59
2018-01-26T11:32:06.356Z,1018.56
2018-01-26T11:33:08.154Z,1018.60
2018-01-26T11:34:10.013Z,1018.60
2018-01-26T11:35:11.877Z,1018.63
2018-01-26T11:36:13.754Z,1018.58
2018-01-26T11:37:27.878Z,1018.58
2018-01-26T11:38:29.741Z,1018.49
2018-01-26T11:39:31.605Z,1018.58
2018-01-26T11:40:33.487Z,1018.61
2018-01-26T11:41:35.296Z,1018.50
2018-01-26T11:42:37.096Z,1018.54
2018-01-26T11:43:38.968Z,1018.59
2018-01-26T11:44:40.841Z,1018.59
2018-01-26T11:45:42.710Z,1018.53
2018-01-26T11:46:56.858Z,1018.57
2018-01-26T11:47:58.716Z,1018.59
2018-01-26T11:49:00.582Z,1018.67
2018-01-26T11:50:02.454Z,1018.70
2018-01-26T11:51:04.252Z,1018.67
2018-01-26T11:52:06.071Z,1018.69
2018-01-26T11:53:07.955Z,1018.65
2018-01-26T11:54:09.834Z,1018.67
2018-01-26T11:55:11.717Z,1018.66
2018-01-26T11:56:25.893Z,1018.66
2018-01-26T11:57:27.761Z,1018.71
2018-01-26T11:58:29.635Z,1018.66
2018-01-26T11:59:31.497Z,1018.73
2018-01-26T12:00:33.299Z,1018.71
2018-01-26T12:01:35.111Z,1018.68
2018-01-26T12:02:36.972Z,1018.68
2018-01-26T12:03:38.830Z,1018.75
2018-01-26T12:04:40.696Z,1018.76
2018-01-26T12:05:54.824Z,1018.81
2018-01-26T12:06:56.706Z,1018.79
2018-01-26T12:07:58.590Z,1018.83
2018-01-26T12:09:00.472Z,1018.87
2018-01-26T12:10:02.289Z,1018.85
2018-01-26T12:11:04.091Z,1018.81
2018-01-26T12:12:05.970Z,1018.78
2018-01-26T12:13:07.826Z,1018.81
2018-01-26T12:14:09.689Z,1018.83
2018-01-26T12:15:23.815Z,1018.83
2018-01-26T12:16:25.679Z,1018.86
2018-01-26T12:17:27.563Z,1018.85
2018-01-26T12:18:29.426Z,1018.84
2018-01-26T12:19:31.224Z,1018.80
2018-01-26T12:20:33.021Z,1018.86
2018-01-26T12:21:34.895Z,1018.91
2018-01-26T12:22:36.745Z,1018.91
2018-01-26T12:23:38.695Z,1018.96
2018-01-26T12:24:52.977Z,1018.95
2018-01-26T12:25:54.948Z,1018.96
2018-01-26T12:26:56.914Z,1018.98
2018-01-26T12:27:58.879Z,1018.96
2018-01-26T12:29:00.739Z,1018.98
2018-01-26T12:30:02.637Z,1019.01
2018-01-26T12:31:04.613Z,1019.03
2018-01-26T12:32:06.572Z,1019.02
2018-01-26T12:33:08.532Z,1019.10
2018-01-26T12:34:22.771Z,1019.03
2018-01-26T12:35:24.735Z,1019.04
2018-01-26T12:36:26.633Z,1019.06
2018-01-26T12:37:28.491Z,1019.02
2018-01-26T12:38:30.298Z,1019.07
2018-01-26T12:39:32.103Z,1019.13
2018-01-26T12:40:34.035Z,1019.09
2018-01-26T12:41:35.866Z,1019.06
2018-01-26T12:42:37.759Z,1019.13
2018-01-26T12:43:51.898Z,1019.18
2018-01-26T12:44:53.798Z,1019.13
2018-01-26T12:45:55.688Z,1019.13
2018-01-26T12:46:57.578Z,1019.18
2018-01-26T12:47:59.383Z,1019.13